📊 Raw Sensor Data

Showing records 32451 to 32475 of 84,700 total

ID Distance (ft) Battery V Battery A Int Temp (°F) Int Humid (%) Ext Temp (°F) Solar V RSSI SNR Time Stamp
52262 15.1 4.01 0 104 42 94 5.10 -75 8 09/17/2025 01:30 PM
52261 15.1 4.01 0 102 42 94 5.10 -73 8 09/17/2025 01:15 PM
52260 15.1 4.01 5 101 42 92 5.10 -74 8 09/17/2025 01:00 PM
52259 15.1 4.05 0 100 42 93 5.10 -73 7 09/17/2025 12:45 PM
52258 15.1 4.01 0 98 42 92 5.10 -74 7 09/17/2025 12:30 PM
52257 15.1 4.01 0 97 42 90 5.10 -75 7 09/17/2025 12:15 PM
52256 15.1 4.01 0 96 42 90 5.10 -75 7 09/17/2025 12:00 PM
52255 15.1 4.01 0 94 41 89 5.10 -74 8 09/17/2025 11:45 AM
52254 15.2 4.01 0 93 41 88 5.10 -74 8 09/17/2025 11:30 AM
52253 15.1 4.01 5 91 41 88 5.10 -74 8 09/17/2025 11:15 AM
52252 15.1 4.01 5 89 40 86 5.10 -74 8 09/17/2025 11:00 AM
52251 15.1 4.01 5 87 40 86 5.10 -74 8 09/17/2025 10:45 AM
52250 15.1 4.01 0 84 40 84 5.10 -74 8 09/17/2025 10:30 AM
52249 15.2 4.01 5 81 41 82 5.10 -72 7 09/17/2025 10:15 AM
52248 15.2 4.01 0 79 41 81 5.10 -72 8 09/17/2025 10:00 AM
52247 15.2 4.01 0 77 41 79 5.10 -72 8 09/17/2025 09:45 AM
52246 15.1 4.01 5 74 41 76 5.10 -72 7 09/17/2025 09:30 AM
52245 15.0 4.09 5 72 41 73 5.10 -73 8 09/17/2025 09:15 AM
52244 15.1 4.01 5 70 41 72 5.10 -71 7 09/17/2025 09:00 AM
52243 15.1 4.01 5 68 41 70 5.10 -70 7 09/17/2025 08:45 AM
52242 15.0 4.01 5 66 40 68 5.10 -71 8 09/17/2025 08:30 AM
52241 13.8 4.01 5 64 41 67 5.10 -71 8 09/17/2025 08:15 AM
52240 14.8 4.14 59 61 41 65 4.50 -73 8 09/17/2025 08:00 AM
52239 14.8 4.06 35 58 42 62 4.50 -71 8 09/17/2025 07:45 AM
52238 14.8 4.01 12 57 43 60 4.50 -70 8 09/17/2025 07:30 AM